• Join FlightAware (Why Join?)
  • Login
  • US Flag 
03:32PM EDT


 

Airport Tracker/Info


-or-


 

Live Flight TrackerFlight Track Log ✈ UPS238 ✈ 31-Oct-2013 ✈ EGSS / STN - KSDF

Flight Track Log - Related Links

Times and Time Zones

All times are in EDT time to prevent confusion due to time zone crossing. See the UPS238 flight status page for this flight to view local times or setup timezone preferences in your user account.

Time Position Orientation Groundspeed Altitude Reporting Facility
EDT Latitude Longitude Course Direction KTS MPH feet Rate Location/Type
06:40PM 55.1531 -19.6757 245° Southwest  Level Estimated
06:41PM 55.1841 -19.8743 285° West  Level FlightAware Approximate
06:42PM 55.2147 -20.0733 285° West  Level FlightAware Approximate
06:43PM 55.2451 -20.2726 285° West  Level FlightAware Approximate
06:44PM 55.2751 -20.4722 285° West  Level FlightAware Approximate
06:45PM 55.3048 -20.6721 285° West  Level FlightAware Approximate
06:46PM 55.3342 -20.8722 285° West  Level FlightAware Approximate
06:47PM 55.3633 -21.0727 284° West  Level FlightAware Approximate
06:48PM 55.3920 -21.2735 284° West  Level FlightAware Approximate
06:49PM 55.4037 -21.4795 276° West  Level Estimated
06:50PM 55.4151 -21.6857 276° West  Level Estimated
06:51PM 55.4261 -21.8919 275° West  Level Estimated
06:52PM 55.4368 -22.0983 275° West  Level Estimated
06:53PM 55.4471 -22.3048 275° West  Level Estimated
06:54PM 55.4571 -22.5114 275° West  Level Estimated
06:55PM 55.4667 -22.7181 275° West  Level Estimated
06:56PM 55.4760 -22.9249 275° West  Level Estimated
06:57PM 55.4849 -23.1318 274° West  Level Estimated
06:58PM 55.4935 -23.3388 274° West  Level Estimated
06:58PM 59.0000 -20.0000 285° West 442 509 32,000  Level ETMS Enhanced Traffic Management System
06:59PM 55.5018 -23.5459 274° West  Level Estimated
07:00PM 55.5096 -23.7530 274° West  Level Estimated
07:01PM 55.5172 -23.9603 274° West  Level Estimated
07:02PM 55.5244 -24.1676 274° West  Level Estimated
07:03PM 55.5312 -24.3750 273° West  Level Estimated
07:04PM 59.1890 -21.3894 284° West 442 509 32,000  Level FlightAware Transoceanic
07:05PM 59.2191 -21.6225 284° West 442 509 32,000  Level FlightAware Transoceanic
07:06PM 59.2487 -21.8559 284° West 442 509 32,000  Level FlightAware Transoceanic
07:07PM 59.2779 -22.0898 284° West 442 509 32,000  Level FlightAware Transoceanic
07:08PM 59.3067 -22.3240 283° West 442 509 32,000  Level FlightAware Transoceanic
07:09PM 59.3351 -22.5587 283° West 442 509 32,000  Level FlightAware Transoceanic
07:10PM 59.3630 -22.7937 283° West 442 509 32,000  Level FlightAware Transoceanic
07:11PM 59.3906 -23.0291 283° West 442 509 32,000  Level FlightAware Transoceanic
07:12PM 59.4177 -23.2649 283° West 442 509 32,000  Level FlightAware Transoceanic
07:13PM 59.4444 -23.5011 282° West 442 509 32,000  Level FlightAware Transoceanic
07:14PM 59.4706 -23.7376 282° West 442 509 32,000  Level FlightAware Transoceanic
07:15PM 59.4964 -23.9746 282° West 442 509 32,000  Level FlightAware Transoceanic
07:16PM 59.5218 -24.2118 282° West 442 509 32,000  Level FlightAware Transoceanic
07:17PM 59.5468 -24.4494 282° West 442 509 32,000  Level FlightAware Transoceanic
07:18PM 59.5713 -24.6874 281° West 442 509 32,000  Level FlightAware Transoceanic
07:19PM 59.5954 -24.9257 281° West 442 509 32,000  Level FlightAware Transoceanic
07:20PM 59.6191 -25.1644 281° West 442 509 32,000  Level FlightAware Transoceanic
07:21PM 59.6423 -25.4034 281° West 442 509 32,000  Level FlightAware Transoceanic
07:22PM 59.6651 -25.6427 281° West 442 509 32,000  Level FlightAware Transoceanic
07:23PM 59.6875 -25.8823 280° West 442 509 32,000  Level FlightAware Transoceanic
07:24PM 59.7094 -26.1223 280° West 442 509 32,000  Level FlightAware Transoceanic
07:25PM 59.7309 -26.3626 280° West 442 509 32,000  Level FlightAware Transoceanic
07:26PM 59.7519 -26.6031 280° West 442 509 32,000  Level FlightAware Transoceanic
07:27PM 59.7725 -26.8440 280° West 442 509 32,000  Level FlightAware Transoceanic
07:28PM 59.7927 -27.0852 279° West 442 509 32,000  Level FlightAware Transoceanic
07:29PM 59.8124 -27.3266 279° West 442 509 32,000  Level FlightAware Transoceanic
07:30PM 59.8317 -27.5684 279° West 442 509 32,000  Level FlightAware Transoceanic
07:31PM 59.8506 -27.8104 279° West 442 509 32,000  Level FlightAware Transoceanic
07:32PM 59.8689 -28.0527 278° West 442 509 32,000  Level FlightAware Transoceanic
07:33PM 59.8869 -28.2952 278° West 442 509 32,000  Level FlightAware Transoceanic
07:34PM 59.9044 -28.5380 278° West 442 509 32,000  Level FlightAware Transoceanic
07:35PM 59.9215 -28.7811 278° West 442 509 32,000  Level FlightAware Transoceanic
07:36PM 59.9381 -29.0244 278° West 442 509 32,000  Level FlightAware Transoceanic
07:37PM 59.9542 -29.2680 277° West 442 509 32,000  Level FlightAware Transoceanic
07:38PM 59.9699 -29.5117 277° West 442 509 32,000  Level FlightAware Transoceanic
07:39PM 59.9852 -29.7558 277° West 442 509 32,000  Level FlightAware Transoceanic
07:40PM 59.9994 -29.9892 277° West  Level FlightAware Approximate
07:41PM 60.0131 -30.2227 277° West  Level FlightAware Approximate
07:42PM 59.9872 -30.2118 263° West  Level FlightAware Approximate
07:43PM 59.9727 -30.4450 263° West  Level FlightAware Approximate
07:44PM 59.9577 -30.6780 263° West  Level FlightAware Approximate
07:45PM 59.9424 -30.9108 263° West  Level FlightAware Approximate
07:46PM 59.9267 -31.1434 262° West  Level FlightAware Approximate
07:47PM 59.9105 -31.3758 262° West  Level FlightAware Approximate
07:48PM 59.8939 -31.6079 262° West  Level FlightAware Approximate
07:49PM 59.8770 -31.8398 262° West  Level FlightAware Approximate
07:50PM 59.8596 -32.0715 262° West  Level FlightAware Approximate
07:51PM 59.8418 -32.3029 261° West  Level FlightAware Approximate
07:52PM 59.8236 -32.5341 261° West  Level FlightAware Approximate
07:53PM 59.8050 -32.7650 261° West  Level FlightAware Approximate
07:54PM 59.7860 -32.9956 261° West  Level FlightAware Approximate
07:55PM 59.7666 -33.2260 261° West  Level FlightAware Approximate
07:56PM 59.7468 -33.4561 260° West  Level FlightAware Approximate
07:57PM 59.7266 -33.6860 260° West  Level FlightAware Approximate
07:58PM 59.7060 -33.9155 260° West  Level FlightAware Approximate
07:59PM 59.6850 -34.1448 260° West  Level FlightAware Approximate
08:00PM 59.6636 -34.3738 260° West  Level FlightAware Approximate
08:01PM 59.6417 -34.6025 259° West  Level FlightAware Approximate
08:02PM 59.6195 -34.8309 259° West  Level FlightAware Approximate
08:03PM 59.5969 -35.0590 259° West  Level FlightAware Approximate
08:04PM 59.5739 -35.2868 259° West  Level FlightAware Approximate
08:05PM 59.5505 -35.5142 259° West  Level FlightAware Approximate
08:06PM 59.5268 -35.7414 258° West  Level FlightAware Approximate
08:07PM 59.5026 -35.9682 258° West  Level FlightAware Approximate
08:08PM 59.4780 -36.1947 258° West  Level FlightAware Approximate
08:09PM 59.4530 -36.4209 258° West  Level FlightAware Approximate
08:10PM 59.4277 -36.6467 258° West  Level FlightAware Approximate
08:11PM 59.4020 -36.8722 257° West  Level FlightAware Approximate
08:12PM 59.3758 -37.0973 257° West  Level FlightAware Approximate
08:13PM 59.3493 -37.3221 257° West  Level FlightAware Approximate
08:14PM 59.3224 -37.5466 257° West  Level FlightAware Approximate
08:15PM 59.2951 -37.7706 257° West  Level FlightAware Approximate
08:16PM 59.2674 -37.9944 256° West  Level FlightAware Approximate
08:17PM 59.2394 -38.2177 256° West  Level FlightAware Approximate
08:18PM 59.2109 -38.4407 256° West  Level FlightAware Approximate
08:19PM 59.1821 -38.6633 256° West  Level FlightAware Approximate
08:20PM 59.1529 -38.8855 256° West  Level FlightAware Approximate
08:21PM 59.1234 -39.1074 256° West  Level FlightAware Approximate
08:22PM 59.0934 -39.3289 255° West  Level FlightAware Approximate
08:23PM 59.0631 -39.5499 255° West  Level FlightAware Approximate
08:24PM 59.0324 -39.7706 255° West  Level FlightAware Approximate
08:25PM 59.0013 -39.9909 255° West  Level FlightAware Approximate
08:26PM 58.9524 -40.1983 245° Southwest  Level FlightAware Approximate
08:27PM 58.9024 -40.4045 245° Southwest  Level FlightAware Approximate
08:28PM 58.8521 -40.6101 245° Southwest  Level FlightAware Approximate
08:29PM 58.8015 -40.8152 245° Southwest  Level FlightAware Approximate
08:30PM 58.7506 -41.0196 244° Southwest  Level FlightAware Approximate
08:31PM 58.6993 -41.2234 244° Southwest  Level FlightAware Approximate
08:32PM 58.6477 -41.4267 244° Southwest  Level FlightAware Approximate
08:33PM 58.5958 -41.6293 244° Southwest  Level FlightAware Approximate
08:34PM 58.5436 -41.8313 244° Southwest  Level FlightAware Approximate
08:35PM 58.4910 -42.0327 244° Southwest  Level FlightAware Approximate
08:36PM 58.4382 -42.2336 243° Southwest  Level FlightAware Approximate
08:37PM 58.3850 -42.4338 243° Southwest  Level FlightAware Approximate
08:38PM 58.3315 -42.6334 243° Southwest  Level FlightAware Approximate
08:39PM 58.2777 -42.8324 243° Southwest  Level FlightAware Approximate
08:40PM 58.2236 -43.0308 243° Southwest  Level FlightAware Approximate
08:41PM 58.1692 -43.2286 243° Southwest  Level FlightAware Approximate
08:42PM 58.1145 -43.4258 242° Southwest  Level FlightAware Approximate
08:43PM 58.0595 -43.6224 242° Southwest  Level FlightAware Approximate
08:44PM 58.0042 -43.8183 242° Southwest  Level FlightAware Approximate
08:45PM 57.9485 -44.0137 242° Southwest  Level FlightAware Approximate
08:46PM 57.8926 -44.2085 242° Southwest  Level FlightAware Approximate
08:47PM 57.8364 -44.4026 242° Southwest  Level FlightAware Approximate
08:48PM 57.7799 -44.5962 241° Southwest  Level FlightAware Approximate
08:49PM 57.7231 -44.7891 241° Southwest  Level FlightAware Approximate
08:50PM 57.6660 -44.9815 241° Southwest  Level FlightAware Approximate
08:51PM 57.6086 -45.1732 241° Southwest  Level FlightAware Approximate
08:52PM 57.5509 -45.3643 241° Southwest  Level FlightAware Approximate
08:53PM 57.4930 -45.5548 241° Southwest  Level FlightAware Approximate
08:54PM 57.4347 -45.7448 240° Southwest  Level FlightAware Approximate
08:55PM 57.3762 -45.9341 240° Southwest  Level FlightAware Approximate
08:56PM 57.3174 -46.1228 240° Southwest  Level FlightAware Approximate
08:57PM 57.2583 -46.3109 240° Southwest  Level FlightAware Approximate
08:58PM 57.1989 -46.4984 240° Southwest  Level FlightAware Approximate
08:59PM 57.1392 -46.6853 240° Southwest  Level FlightAware Approximate
09:00PM 57.0793 -46.8716 239° Southwest  Level FlightAware Approximate
09:01PM 57.0191 -47.0573 239° Southwest  Level FlightAware Approximate
09:02PM 56.9586 -47.2423 239° Southwest  Level FlightAware Approximate
09:03PM 56.8979 -47.4268 239° Southwest  Level FlightAware Approximate
09:04PM 56.8368 -47.6107 239° Southwest  Level FlightAware Approximate
09:05PM 56.7755 -47.7940 239° Southwest  Level FlightAware Approximate
09:06PM 56.7140 -47.9767 239° Southwest  Level FlightAware Approximate
09:07PM 56.6521 -48.1588 238° Southwest  Level FlightAware Approximate
09:08PM 56.5900 -48.3403 238° Southwest  Level FlightAware Approximate
09:09PM 56.5277 -48.5211 238° Southwest  Level FlightAware Approximate
09:10PM 56.4650 -48.7015 238° Southwest  Level FlightAware Approximate
09:11PM 56.4022 -48.8811 238° Southwest  Level FlightAware Approximate
09:12PM 56.3390 -49.0603 238° Southwest  Level FlightAware Approximate
09:13PM 56.2756 -49.2388 237° Southwest  Level FlightAware Approximate
09:14PM 56.2120 -49.4167 237° Southwest  Level FlightAware Approximate
09:15PM 56.1481 -49.5940 237° Southwest  Level FlightAware Approximate
09:16PM 56.0839 -49.7708 237° Southwest  Level FlightAware Approximate
09:17PM 56.0195 -49.9469 237° Southwest  Level FlightAware Approximate
09:18PM 55.9566 -50.1245 238° Southwest  Level FlightAware Approximate
09:19PM 55.8943 -50.3025 238° Southwest  Level FlightAware Approximate
09:20PM 55.8317 -50.4799 238° Southwest  Level FlightAware Approximate
09:21PM 55.7689 -50.6567 238° Southwest  Level FlightAware Approximate
09:22PM 55.7058 -50.8329 238° Southwest  Level FlightAware Approximate
09:23PM 55.6424 -51.0086 237° Southwest  Level FlightAware Approximate
09:24PM 55.5788 -51.1837 237° Southwest  Level FlightAware Approximate
09:25PM 55.5150 -51.3582 237° Southwest  Level FlightAware Approximate
09:26PM 55.4509 -51.5322 237° Southwest  Level FlightAware Approximate
09:27PM 55.3865 -51.7056 237° Southwest  Level FlightAware Approximate
09:28PM 55.3219 -51.8784 237° Southwest  Level FlightAware Approximate
09:29PM 55.2571 -52.0507 237° Southwest  Level FlightAware Approximate
09:30PM 55.1920 -52.2224 236° Southwest  Level FlightAware Approximate
09:31PM 55.1267 -52.3936 236° Southwest  Level FlightAware Approximate
09:32PM 55.0612 -52.5642 236° Southwest  Level FlightAware Approximate
09:33PM 54.9954 -52.7342 236° Southwest  Level FlightAware Approximate
09:34PM 54.9294 -52.9036 236° Southwest  Level FlightAware Approximate
09:35PM 54.8631 -53.0726 236° Southwest  Level FlightAware Approximate
09:36PM 54.7966 -53.2409 236° Southwest  Level FlightAware Approximate
09:37PM 54.7299 -53.4087 235° Southwest  Level FlightAware Approximate
09:38PM 54.6629 -53.5760 235° Southwest  Level FlightAware Approximate
09:39PM 54.5957 -53.7427 235° Southwest  Level FlightAware Approximate
09:39PM 54.8000 -55.1167 245° Southwest 390 449 32,000  Level Moncton Center
09:40PM 54.5283 -53.9089 235° Southwest  Level FlightAware Approximate
09:40PM 54.7667 -55.2000 235° Southwest 390 449 32,000  Level Gander Center
09:41PM 54.4805 -54.0923 246° West  Level Estimated
09:41PM 54.7333 -55.3667 251° West 390 449 32,000  Level Gander Center
09:42PM 54.4325 -54.2754 246° West  Level Estimated
09:42PM 54.6833 -55.5500 245° Southwest 390 449 32,000  Level Gander Center
09:43PM 54.3842 -54.4580 246° West  Level Estimated
09:43PM 54.6000 -55.7167 229° Southwest 400 460 32,000  Level Gander Center
09:44PM 54.3355 -54.6401 245° Southwest  Level Estimated
09:44PM 54.5333 -55.8333 225° Southwest 400 460 32,000  Level Gander Center
09:45PM 54.2867 -54.8219 245° Southwest  Level Estimated
09:45PM 54.4500 -55.9833 226° Southwest 400 460 32,000  Level Gander Center
09:46PM 54.4000 -56.1333 240° Southwest 410 472 32,000  Level Gander Center
09:47PM 54.3167 -56.3000 229° Southwest 410 472 32,000  Level Gander Center
09:48PM 54.2333 -56.4500 226° Southwest 400 460 32,000  Level Gander Center
09:49PM 54.1667 -56.5667 226° Southwest 400 460 32,000  Level Gander Center
09:50PM 54.1000 -56.7167 233° Southwest 400 460 32,000  Level Gander Center
09:51PM 54.0167 -56.8667 227° Southwest 410 472 32,000  Level Gander Center
09:52PM 53.9333 -57.0167 227° Southwest 410 472 32,000  Level Gander Center
09:53PM 53.8667 -57.1667 233° Southwest 410 472 32,000  Level Gander Center
09:54PM 53.8000 -57.2833 226° Southwest 410 472 32,000  Level Gander Center
09:55PM 53.7167 -57.4667 233° Southwest 410 472 32,000  Level Gander Center
09:56PM 53.6333 -57.5833 220° Southwest 420 483 32,000  Level Gander Center
09:57PM 53.5667 -57.7667 239° Southwest 420 483 32,000  Level Gander Center
09:58PM 53.4833 -57.8833 220° Southwest 420 483 32,000  Level Gander Center
09:59PM 53.4000 -58.0500 230° Southwest 420 483 32,000  Level Gander Center
10:00PM 53.3167 -58.1667 220° Southwest 420 483 32,000  Level Gander Center
10:01PM 53.2667 -58.3167 241° Southwest 420 483 32,000  Level Gander Center
10:02PM 53.1833 -58.4667 227° Southwest 420 483 32,000  Level Gander Center
10:03PM 53.1000 -58.6167 227° Southwest 420 483 32,000  Level Gander Center
10:04PM 53.0167 -58.7500 224° Southwest 420 483 32,000  Level Gander Center
10:05PM 52.9333 -58.9000 227° Southwest 420 483 32,000  Level Gander Center
10:06PM 52.8500 -59.0667 230° Southwest 420 483 32,000  Level Gander Center
10:07PM 52.7833 -59.1833 227° Southwest 420 483 32,000  Level Gander Center
10:08PM 52.7000 -59.3167 224° Southwest 420 483 32,000  Level Gander Center
10:09PM 52.6167 -59.4667 228° Southwest 420 483 32,000  Level Gander Center
10:10PM 52.5333 -59.6000 224° Southwest 420 483 32,000  Level Gander Center
10:11PM 52.4500 -59.7667 231° Southwest 420 483 32,000  Level Gander Center
10:12PM 52.3667 -59.8833 221° Southwest 430 495 32,000  Level Gander Center
10:13PM 52.2833 -60.0500 231° Southwest 430 495 32,000  Level Gander Center
10:14PM 52.2000 -60.1833 224° Southwest 430 495 32,000  Level Gander Center
10:15PM 52.1167 -60.3333 228° Southwest 430 495 32,000  Level Gander Center
10:16PM 52.0333 -60.4667 225° Southwest 430 495 32,000  Level Gander Center
10:17PM 51.9500 -60.6000 225° Southwest 430 495 32,000  Level Gander Center
10:18PM 51.8667 -60.7333 225° Southwest 430 495 32,000  Level Gander Center
10:19PM 51.7833 -60.8833 228° Southwest 440 506 32,000  Level Gander Center
10:20PM 51.7000 -61.0167 225° Southwest 440 506 32,000  Level Gander Center
10:21PM 51.6167 -61.1667 228° Southwest 430 495 32,000  Level Gander Center
10:22PM 51.5333 -61.3167 228° Southwest 430 495 32,000  Level Gander Center
10:23PM 51.4500 -61.4500 225° Southwest 430 495 32,000  Level Gander Center
10:24PM 51.3667 -61.5833 225° Southwest 420 483 32,000  Level Gander Center
10:25PM 51.2833 -61.7167 225° Southwest 420 483 32,000  Level Gander Center
10:26PM 51.2000 -61.8500 225° Southwest 410 472 32,000  Level Gander Center
10:27PM 51.1333 -61.9500 223° Southwest 400 460 32,000  Level Gander Center
10:28PM 51.0500 -62.0833 225° Southwest 410 472 32,000  Level Gander Center
10:29PM 50.9667 -62.2167 225° Southwest 400 460 32,000  Level Gander Center
10:30PM 50.8833 -62.3500 225° Southwest 390 449 32,000  Level Gander Center
10:31PM 50.8167 -62.4500 223° Southwest 400 460 32,000  Level Gander Center
10:32PM 50.7333 -62.5833 225° Southwest 390 449 32,000  Level Gander Center
10:33PM 50.6500 -62.7000 222° Southwest 390 449 32,000  Level Gander Center
10:34PM 50.5833 -62.8167 228° Southwest 390 449 32,000  Level Gander Center
10:40PM 50.0840 -63.5980 228° Southwest 408 470 32,000  Level FlightAware
10:40PM 50.0530 -63.6450 224° Southwest 408 470 32,000  Level FlightAware
10:41PM 50.0090 -63.7090 223° Southwest 408 470 32,000  Level FlightAware
10:41PM 49.9630 -63.7760 223° Southwest 408 470 32,000  Level FlightAware
10:42PM 49.8820 -63.8940 223° Southwest 409 471 32,000  Level FlightAware
10:43PM 49.8100 -63.9990 223° Southwest 411 473 32,000  Level FlightAware
10:44PM 49.7450 -64.0930 223° Southwest 411 473 32,000  Level FlightAware
10:44PM 49.7090 -64.1450 223° Southwest 412 474 32,000  Level FlightAware
10:45PM 49.6390 -64.2460 223° Southwest 414 476 32,000  Level FlightAware
10:46PM 49.5820 -64.3270 223° Southwest 415 478 32,000  Level FlightAware
10:47PM 49.5170 -64.4200 223° Southwest 416 479 32,000  Level FlightAware
10:47PM 49.4430 -64.5250 223° Southwest 416 479 32,000  Level FlightAware
10:48PM 49.3630 -64.6380 223° Southwest 416 479 32,000  Level FlightAware
10:49PM 49.2970 -64.7320 223° Southwest 416 479 32,000  Level FlightAware
10:50PM 49.2250 -64.8330 223° Southwest 416 479 32,000  Level FlightAware
10:51PM 49.1570 -64.9280 222° Southwest 416 479 32,000  Level FlightAware
10:52PM 49.0770 -65.0400 223° Southwest 415 478 32,000  Level FlightAware
10:52PM 49.0230 -65.1160 223° Southwest 414 476 32,000  Level FlightAware
10:53PM 48.9400 -65.2310 222° Southwest 414 476 32,000  Level FlightAware
10:54PM 48.8960 -65.2930 223° Southwest 414 476 32,000  Level FlightAware
10:55PM 48.8130 -65.4070 222° Southwest 415 478 32,000  Level FlightAware
10:56PM 48.7500 -65.4930 222° Southwest 416 479 32,000  Level FlightAware
10:56PM 48.7050 -65.5550 222° Southwest 416 479 32,000  Level FlightAware
10:57PM 48.6580 -65.6190 222° Southwest 415 478 32,000  Level FlightAware
10:58PM 48.5720 -65.7370 222° Southwest 413 475 32,000  Level FlightAware
10:58PM 48.5050 -65.8290 222° Southwest 412 474 32,000  Level FlightAware
10:59PM 48.4250 -65.9360 222° Southwest 409 471 32,000  Level FlightAware
11:00PM 48.3520 -66.0350 222° Southwest 409 471 32,000  Level FlightAware
11:01PM 48.3050 -66.0980 222° Southwest 409 471 32,000  Level FlightAware
11:02PM 48.2130 -66.2220 222° Southwest 410 472 32,000  Level FlightAware
11:03PM 48.1400 -66.3180 221° Southwest 408 470 32,000  Level FlightAware
11:04PM 48.0550 -66.4330 222° Southwest 408 470 32,000  Level FlightAware
11:04PM 47.9940 -66.5130 221° Southwest 408 470 32,000  Level FlightAware
11:05PM 47.9180 -66.6140 222° Southwest 409 471 32,000  Level FlightAware
11:06PM 47.8400 -66.7160 221° Southwest 410 472 32,000  Level FlightAware
11:07PM 47.7530 -66.8300 221° Southwest 410 472 32,000  Level FlightAware
11:08PM 47.7170 -66.8780 222° Southwest 412 474 32,000  Level FlightAware
11:09PM 47.6400 -66.9780 221° Southwest 413 475 32,000  Level FlightAware
11:09PM 47.5640 -67.0770 221° Southwest 416 479 32,000  Level FlightAware
11:10PM 47.4950 -67.1660 221° Southwest 417 480 32,000  Level FlightAware
11:11PM 47.4230 -67.2590 221° Southwest 418 481 32,000  Level FlightAware
11:12PM 47.3660 -67.3340 222° Southwest 415 478 32,000  Level FlightAware
11:13PM 47.3050 -67.4250 225° Southwest 412 474 32,000  Level FlightAware
11:13PM 47.2650 -67.4860 226° Southwest 412 474 32,000  Level FlightAware
11:14PM 47.1980 -67.5880 226° Southwest 413 475 32,000  Level FlightAware
11:15PM 47.1290 -67.6920 226° Southwest 415 478 32,000  Level FlightAware
11:15PM 47.0860 -67.7570 226° Southwest 414 476 32,000  Level FlightAware
11:16PM 47.1008 -67.7348 46° Northeast 414 476 32,000  Level FlightAware ADS-B (CYSG)
11:16PM 47.0070 -67.8760 226° Southwest 414 476 32,000  Level FlightAware
11:17PM 46.9550 -67.9540 226° Southwest 408 470 32,000  Level FlightAware
11:17PM 46.9190 -68.0080 226° Southwest 400 460 32,000  Level FlightAware
11:18PM 46.8440 -68.1190 225° Southwest 400 460 32,000  Level FlightAware
11:19PM 46.8192 -68.1560 226° Southwest 403 464 32,000  Level FlightAware ADS-B (CYSG)
11:19PM 46.7803 -68.2135 225° Southwest 405 466 32,000  Level FlightAware ADS-B (CYSG)
11:20PM 46.7262 -68.2938 225° Southwest 404 465 32,000  Level FlightAware ADS-B (CYSG)
11:21PM 46.6600 -68.3910 225° Southwest 405 466 32,000  Level FlightAware ADS-B (CYSG)
11:21PM 46.6186 -68.4517 225° Southwest 406 467 32,000  Level FlightAware ADS-B (CYSG)
11:22PM 46.5657 -68.5292 225° Southwest 407 468 32,000  Level FlightAware ADS-B (CYSG)
11:23PM 46.5098 -68.6107 225° Southwest 408 470 32,000  Level FlightAware ADS-B (CYSG)
11:23PM 46.4576 -68.6867 225° Southwest 409 471 32,000  Level FlightAware ADS-B (CYSG)
11:24PM 46.4067 -68.7603 225° Southwest 407 468 32,000  Level FlightAware ADS-B (CYSG)
11:25PM 46.3532 -68.8374 225° Southwest 406 467 32,000  Level FlightAware ADS-B (CYSG)
11:25PM 46.3078 -68.9032 225° Southwest 405 466 32,000  Level FlightAware ADS-B (CYSG)
11:26PM 46.2700 -68.9576 225° Southwest 404 465 32,000  Level FlightAware ADS-B (CYSG)
11:26PM 46.2126 -69.0399 225° Southwest 402 463 32,000  Level FlightAware ADS-B (CYSG)
11:27PM 46.1722 -69.0975 225° Southwest 400 460 32,000  Level FlightAware ADS-B (CYSG)
11:27PM 46.1182 -69.1745 225° Southwest 398 458 32,000  Level FlightAware ADS-B (CYSG)
11:28PM 46.0768 -69.2332 225° Southwest 397 457 32,000  Level FlightAware ADS-B (CYSG)
11:29PM 46.0218 -69.3110 225° Southwest 397 457 32,000  Level FlightAware ADS-B (CYSG)
11:29PM 45.9801 -69.3699 224° Southwest 402 463 32,000  Level FlightAware ADS-B (CYSG)
11:30PM 45.9277 -69.4439 224° Southwest 405 466 32,000  Level FlightAware ADS-B (CYSG)
11:31PM 45.8761 -69.5161 224° Southwest 408 470 32,000  Level FlightAware ADS-B (CYSG)
11:31PM 45.8291 -69.5818 224° Southwest 408 470 32,000  Level FlightAware ADS-B (CYSG)
11:32PM 45.7733 -69.6596 224° Southwest 410 472 32,000  Level FlightAware ADS-B (CYSG)
11:32PM 45.7287 -69.7216 224° Southwest 411 473 32,000  Level FlightAware ADS-B (CYSG)
11:33PM 45.6758 -69.7951 224° Southwest 412 474 32,000  Level FlightAware ADS-B (CYSG)
11:34PM 45.6290 -69.8597 224° Southwest 412 474 32,000  Level FlightAware ADS-B (CYSG)
11:34PM 45.5762 -69.9322 224° Southwest 412 474 32,000  Level FlightAware ADS-B (CYSG)
11:35PM 45.5289 -69.9976 224° Southwest 412 474 32,000  Level FlightAware ADS-B (CYSG)
11:35PM 45.4815 -70.0788 230° Southwest 404 465 32,000  Level FlightAware ADS-B (CYSG)
11:36PM 45.4511 -70.1427 236° Southwest 403 464 32,000  Level FlightAware ADS-B (CYSG)
11:37PM 45.4077 -70.2361 237° Southwest 403 464 32,000  Level FlightAware ADS-B (CYSG)
11:37PM 45.3767 -70.3025 236° Southwest 403 464 32,000  Level FlightAware ADS-B (CYSG)
11:38PM 45.3441 -70.3721 236° Southwest 403 464 32,000  Level FlightAware ADS-B (CYSG)
11:38PM 45.3127 -70.4390 236° Southwest 402 463 32,000  Level FlightAware ADS-B (CYSG)
11:39PM 45.2712 -70.5257 236° Southwest 402 463 32,000  Level FlightAware ADS-B (CYSG)
11:40PM 45.2271 -70.6191 236° Southwest 402 463 32,000  Level FlightAware ADS-B (CYSG)
11:40PM 45.1800 -70.7190 236° Southwest 402 463 32,000  Level FlightAware
11:41PM 45.1619 -70.7552 235° Southwest 402 463 32,000  Level FlightAware ADS-B (CYSG)
11:41PM 45.1190 -70.8440 236° Southwest 402 463 32,000  Level FlightAware
11:42PM 45.0920 -70.9060 238° Southwest 401 461 32,000  Level FlightAware
11:42PM 45.0560 -71.0020 242° Southwest 401 461 32,000  Level FlightAware
11:43PM 45.0170 -71.1160 244° Southwest 402 463 32,000  Level FlightAware
11:44PM 44.9770 -71.2330 244° Southwest 403 464 32,000  Level FlightAware
11:45PM 44.9240 -71.3850 244° Southwest 404 465 32,000  Level FlightAware
11:46PM 44.8770 -71.5191 244° Southwest 403 464 32,000  Level FlightAware ADS-B (KBOS)
11:47PM 44.8521 -71.5899 244° Southwest 404 465 32,000  Level FlightAware ADS-B (KBOS)
11:47PM 44.8272 -71.6605 244° Southwest 405 466 32,000  Level FlightAware ADS-B (KBOS)
11:48PM 44.8021 -71.7318 244° Southwest 404 465 32,000  Level FlightAware ADS-B (KBOS)
11:48PM 44.7774 -71.8013 243° Southwest 403 464 32,000  Level FlightAware ADS-B (KBOS)
11:49PM 44.7519 -71.8733 244° Southwest 403 464 32,000  Level FlightAware ADS-B (KBOS)
11:49PM 44.7230 -71.9550 244° Southwest 402 463 32,000  Level FlightAware
11:49PM 44.7129 -71.9827 243° Southwest 403 464 32,000  Level FlightAware ADS-B (KBOS)
11:50PM 44.6790 -72.0770 243° Southwest 403 464 32,000  Level FlightAware
11:51PM 44.9490 -71.3120 63° Northeast 406 467 32,000  Level FlightAware ADS-B
11:51PM 44.9420 -71.3320 244° Southwest 406 467 32,000  Level FlightAware ADS-B
11:52PM 44.9340 -71.3560 245° Southwest 405 466 32,000  Level FlightAware ADS-B
11:52PM 44.5570 -72.4160 244° Southwest 406 467 32,000  Level FlightAware
11:53PM 44.5340 -72.4780 243° Southwest 406 467 32,000  Level FlightAware
11:53PM 44.5072 -72.5511 243° Southwest 407 468 32,000  Level FlightAware ADS-B (KBOS)
11:53PM 44.7540 -71.8660 63° Northeast 404 465 32,000  Level FlightAware ADS-B
11:54PM 44.7470 -71.8870 245° Southwest 404 465 32,000  Level FlightAware ADS-B
11:54PM 44.4730 -72.6445 243° Southwest 408 470 32,000  Level FlightAware ADS-B (KBOS)
11:55PM 44.7360 -71.9160 63° Northeast 404 465 32,000  Level FlightAware ADS-B
11:55PM 44.7250 -71.9500 246° West 404 465 32,000  Level FlightAware ADS-B
11:56PM 44.3610 -72.9470 243° Southwest 407 468 32,000  Level FlightAware
11:57PM 44.5470 -72.4420 63° Northeast 407 468 32,000  Level FlightAware ADS-B
11:57PM 44.5310 -72.4850 242° Southwest 407 468 32,000  Level FlightAware ADS-B
11:58PM 44.2670 -73.1990 243° Southwest 409 471 32,000  Level FlightAware
11:58PM 44.2420 -73.2650 242° Southwest 409 471 32,000  Level FlightAware
11:59PM 44.3930 -72.8610 62° Northeast 409 471 32,000  Level FlightAware ADS-B
11:59PM 44.3800 -72.8950 242° Southwest 409 471 32,000  Level FlightAware ADS-B
12:00AM 44.3650 -72.9360 243° Southwest 409 471 32,000  Level FlightAware ADS-B
12:01AM 44.3490 -72.9800 243° Southwest 409 471 32,000  Level FlightAware ADS-B
12:02AM 44.2530 -73.2360 242° Southwest 410 472 32,000  Level FlightAware ADS-B
12:02AM 44.2260 -73.3090 243° Southwest 411 473 32,000  Level FlightAware ADS-B
12:03AM 44.1120 -73.6090 242° Southwest 410 472 32,000  Level FlightAware ADS-B
12:04AM 44.1010 -73.6380 242° Southwest 411 473 32,000  Level FlightAware ADS-B
12:05AM 43.8970 -74.1680 242° Southwest 411 473 32,000  Level FlightAware
12:05AM 44.0310 -73.8220 62° Northeast 413 475 32,000  Level FlightAware ADS-B
12:06AM 44.0060 -73.8860 242° Southwest 413 475 32,000  Level FlightAware ADS-B
12:06AM 43.9870 -73.9350 242° Southwest 413 475 32,000  Level FlightAware ADS-B
12:07AM 43.9680 -73.9850 242° Southwest 413 475 32,000  Level FlightAware ADS-B
12:07AM 43.9480 -74.0370 242° Southwest 413 475 32,000  Level FlightAware ADS-B
12:08AM 43.7360 -74.5800 242° Southwest 407 468 32,000  Level FlightAware
12:08AM 43.8260 -74.3500 61° Northeast 412 474 32,000  Level FlightAware ADS-B
12:09AM 43.7440 -74.5580 241° Southwest 409 471 32,000  Level FlightAware ADS-B
12:10AM 43.6220 -74.8670 241° Southwest 409 471 32,000  Level FlightAware ADS-B
12:11AM 43.5900 -74.9480 241° Southwest 409 471 32,000  Level FlightAware ADS-B
12:11AM 43.5550 -75.0350 241° Southwest 409 471 32,000  Level FlightAware ADS-B
12:12AM 43.5260 -75.1070 241° Southwest 410 472 32,000  Level FlightAware ADS-B
12:12AM 43.5140 -75.1380 242° Southwest 410 472 32,000  Level FlightAware ADS-B
12:13AM 43.4990 -75.1740 240° Southwest 410 472 32,000  Level FlightAware ADS-B
12:13AM 43.4830 -75.2140 241° Southwest 410 472 32,000  Level FlightAware ADS-B
12:14AM 43.4670 -75.2540 241° Southwest 410 472 32,000  Level FlightAware ADS-B
12:15AM 43.3520 -75.5370 241° Southwest 411 473 32,000  Level FlightAware
12:15AM 43.3250 -75.6040 241° Southwest 412 474 32,000  Level FlightAware
12:16AM 43.4100 -75.3950 61° Northeast 413 475 32,000  Level FlightAware ADS-B
12:16AM 43.3910 -75.4430 241° Southwest 413 475 32,000  Level FlightAware ADS-B
12:17AM 43.3770 -75.4770 240° Southwest 413 475 32,000  Level FlightAware ADS-B
12:17AM 43.2170 -75.8710 241° Southwest 415 478 32,000  Level FlightAware
12:18AM 43.1900 -75.9350 240° Southwest 415 478 32,000  Level FlightAware
12:19AM 43.1320 -76.0770 241° Southwest 416 479 32,000  Level FlightAware
12:20AM 43.0770 -76.2110 241° Southwest 415 478 32,000  Level FlightAware
12:21AM 43.0240 -76.3380 240° Southwest 415 478 32,000  Level FlightAware
12:22AM 42.9740 -76.4580 240° Southwest 416 479 32,000  Level FlightAware
12:22AM 42.9290 -76.5660 240° Southwest 416 479 32,000  Level FlightAware
12:23AM 42.8820 -76.6790 240° Southwest 415 478 32,000  Level FlightAware
12:24AM 42.8380 -76.7850 241° Southwest 412 474 32,000  Level FlightAware
12:25AM 42.7840 -76.9110 240° Southwest 408 470 32,000  Level FlightAware
12:26AM 42.7350 -77.0280 240° Southwest 406 467 32,000  Level FlightAware
12:26AM 42.7060 -77.0990 241° Southwest 406 467 32,000  Level FlightAware
12:27AM 42.6620 -77.2020 240° Southwest 406 467 32,000  Level FlightAware
12:28AM 42.6140 -77.3150 240° Southwest 405 466 32,000  Level FlightAware
12:29AM 42.5680 -77.4220 240° Southwest 404 465 32,000  Level FlightAware
12:30AM 42.5160 -77.5440 240° Southwest 404 465 32,000  Level FlightAware
12:31AM 42.4640 -77.6660 240° Southwest 404 465 32,000  Level FlightAware
12:31AM 42.4150 -77.7800 240° Southwest 403 464 32,000  Level FlightAware
12:32AM 42.3930 -77.8310 240° Southwest 403 464 32,000  Level FlightAware
12:33AM 42.3440 -77.9450 240° Southwest 403 464 32,000  Level FlightAware
12:33AM 42.3130 -78.0160 239° Southwest 402 463 32,000  Level FlightAware
12:34AM 42.2630 -78.1300 239° Southwest 399 459 32,000  Level FlightAware
12:35AM 42.2340 -78.1980 240° Southwest 398 458 32,000  Level FlightAware
12:36AM 42.1830 -78.3150 240° Southwest 397 457 32,000  Level FlightAware
12:36AM 42.1480 -78.3940 239° Southwest 394 453 32,000  Level FlightAware
12:37AM 42.1000 -78.5040 240° Southwest 392 451 32,000  Level FlightAware
12:38AM 42.0780 -78.5530 239° Southwest 391 450 32,000  Level FlightAware
12:38AM 42.0350 -78.6510 239° Southwest 392 451 32,000  Level FlightAware
12:39AM 41.9760 -78.7840 239° Southwest 391 450 32,000  Level FlightAware
12:40AM 41.9310 -78.8850 239° Southwest 390 449 32,000  Level FlightAware
12:41AM 41.8850 -78.9890 239° Southwest 391 450 32,000  Level FlightAware
12:41AM 41.8580 -79.0490 239° Southwest 391 450 32,000  Level FlightAware
12:42AM 41.8280 -79.1150 239° Southwest 389 448 32,000  Level FlightAware
12:43AM 41.7760 -79.2320 239° Southwest 391 450 32,000  Level FlightAware
12:44AM 41.7290 -79.3350 239° Southwest 397 457 32,000  Level FlightAware
12:45AM 41.6860 -79.4300 239° Southwest 397 457 32,000  Level FlightAware
12:45AM 41.6420 -79.5270 239° Southwest 398 458 32,000  Level FlightAware
12:46AM 41.5950 -79.6300 239° Southwest 396 456 32,000  Level FlightAware
12:47AM 41.5490 -79.7310 239° Southwest 400 460 32,000  Level FlightAware
12:48AM 41.5070 -79.8220 238° Southwest 398 458 32,000  Level FlightAware
12:48AM 41.4750 -79.8910 238° Southwest 396 456 32,000  Level FlightAware
12:49AM 41.4250 -79.9980 238° Southwest 392 451 32,000  Level FlightAware
12:50AM 41.3760 -80.1050 239° Southwest 378 435 32,000  Level FlightAware
12:51AM 41.3280 -80.2070 238° Southwest 372 428 32,000  Level FlightAware
12:52AM 41.2810 -80.3060 238° Southwest 367 422 32,000  Level FlightAware
12:52AM 41.2570 -80.3590 239° Southwest 361 415 32,000  Level FlightAware
12:53AM 41.2320 -80.4110 237° Southwest 358 412 32,000  Level FlightAware
12:53AM 41.2000 -80.4800 238° Southwest 355 409 32,000  Level FlightAware
12:54AM 41.1490 -80.5870 238° Southwest 355 409 32,000  Level FlightAware
12:55AM 41.1270 -80.6320 237° Southwest 353 406 32,000  Level FlightAware
12:56AM 41.0660 -80.7610 238° Southwest 355 409 32,000  Level FlightAware
12:57AM 41.0150 -80.8670 238° Southwest 369 425 32,000  Level FlightAware
12:57AM 40.9820 -80.9370 238° Southwest 370 426 32,000  Level FlightAware
12:58AM 40.9380 -81.0260 237° Southwest 368 423 32,000  Level FlightAware
12:59AM 40.8940 -81.1180 238° Southwest 366 421 32,000  Level FlightAware
01:00AM 40.8540 -81.2000 237° Southwest 365 420 32,000  Level FlightAware
01:01AM 40.8000 -81.3100 237° Southwest 365 420 32,000  Level FlightAware
01:01AM 40.7560 -81.4000 237° Southwest 365 420 32,000  Level FlightAware
01:02AM 40.7260 -81.4600 237° Southwest 365 420 32,000  Level FlightAware
01:03AM 40.6930 -81.5270 237° Southwest 365 420 32,000  Level FlightAware
01:03AM 40.6490 -81.6160 237° Southwest 366 421 32,000  Level FlightAware
01:04AM 40.6000 -81.7140 237° Southwest 366 421 32,000  Level FlightAware
01:05AM 40.5510 -81.8120 237° Southwest 365 420 32,000  Level FlightAware
01:06AM 40.4950 -81.9240 237° Southwest 364 419 32,000  Level FlightAware
01:07AM 40.4460 -82.0200 236° Southwest 360 414 32,000  Level FlightAware
01:08AM 40.3950 -82.1210 236° Southwest 356 410 32,000  Level FlightAware
01:09AM 40.3510 -82.2080 236° Southwest 353 406 32,000  Level FlightAware
01:09AM 40.3190 -82.2710 236° Southwest 349 402 32,000  Level FlightAware
01:10AM 40.2640 -82.3770 236° Southwest 345 397 32,000  Level FlightAware
01:11AM 40.2340 -82.4350 236° Southwest 345 397 32,000  Level FlightAware
01:11AM 40.2070 -82.4870 236° Southwest 346 398 32,000  Level FlightAware
01:12AM 40.1770 -82.5470 237° Southwest 347 399 32,000  Level FlightAware
01:13AM 40.1300 -82.6370 236° Southwest 345 397 32,000  Level FlightAware
01:14AM 40.0910 -82.7120 236° Southwest 342 394 32,000  Level FlightAware
01:14AM 40.0570 -82.7770 236° Southwest 341 392 32,000  Level FlightAware
01:15AM 40.0160 -82.8550 236° Southwest 340 391 32,000  Level FlightAware
01:16AM 39.9630 -82.9570 236° Southwest 339 390 32,000  Level FlightAware
01:17AM 39.9300 -83.0200 236° Southwest 340 391 32,000  Level FlightAware
01:18AM 39.8770 -83.1200 235° Southwest 341 392 32,000  Level FlightAware
01:18AM 39.8520 -83.1660 235° Southwest 340 391 32,000  Level FlightAware
01:19AM 39.8230 -83.2220 236° Southwest 339 390 32,000  Level FlightAware
01:19AM 39.7770 -83.3090 235° Southwest 340 391 32,000  Level FlightAware
01:20AM 39.7330 -83.3900 235° Southwest 339 390 32,000  Level FlightAware
01:21AM 39.7010 -83.4510 236° Southwest 340 391 32,000  Level FlightAware
01:22AM 39.6580 -83.5320 235° Southwest 338 389 32,000  Level FlightAware
01:22AM 39.6140 -83.6130 235° Southwest 339 390 32,000  Level FlightAware
01:23AM 39.5720 -83.6910 235° Southwest 340 391 32,000  Level FlightAware
01:24AM 39.5410 -83.7500 236° Southwest 340 391 32,000  Level FlightAware
01:25AM 39.4960 -83.8310 234° Southwest 340 391 32,000 -120 Level FlightAware
01:25AM 39.4570 -83.9060 236° Southwest 340 391 31,900 -660 Descending FlightAware
01:26AM 39.4270 -83.9590 234° Southwest 342 394 31,200 -1,200 Descending FlightAware
01:26AM 39.4020 -84.0060 235° Southwest 344 396 30,700 -1,500 Descending FlightAware
01:27AM 39.3460 -84.1080 235° Southwest 358 412 29,100 -1,620 Descending FlightAware
01:28AM 39.3020 -84.1910 236° Southwest 364 419 27,900 -1,920 Descending FlightAware
01:29AM 39.2470 -84.2910 235° Southwest 384 442 25,900 -1,500 Descending FlightAware
01:30AM 39.1940 -84.3880 235° Southwest 367 422 25,200 -840 Descending FlightAware
01:30AM 39.1670 -84.4380 235° Southwest 364 419 24,800 -780 Descending FlightAware
01:31AM 39.1170 -84.5280 234° Southwest 342 394 24,200 -720 Descending FlightAware
01:32AM 39.0770 -84.6010 235° Southwest 326 375 23,700 -720 Descending FlightAware
01:32AM 39.0560 -84.6400 235° Southwest 319 367 23,400 -1,140 Descending FlightAware
01:33AM 39.0010 -84.7330 233° Southwest 311 358 22,100 -1,620 Descending FlightAware
01:34AM 38.9370 -84.7970 218° Southwest 304 350 20,300 -1,800 Descending FlightAware
01:35AM 38.9030 -84.8300 217° Southwest 295 339 19,500 -2,100 Descending FlightAware
01:36AM 38.8340 -84.8960 217° Southwest 292 336 17,000 -2,280 Descending FlightAware
01:37AM 38.7990 -84.9300 217° Southwest 289 333 15,900 -1,980 Descending FlightAware
01:37AM 38.7800 -84.9500 219° Southwest 289 333 15,300 -1,680 Descending FlightAware
01:38AM 38.7330 -84.9950 217° Southwest 277 319 14,200 -1,200 Descending FlightAware
01:38AM 38.6820 -85.0450 217° Southwest 268 308 13,500 -840 Descending FlightAware
01:39AM 38.6210 -85.1030 217° Southwest 272 313 12,700 -600 Descending FlightAware
01:40AM 38.5690 -85.1530 217° Southwest 270 311 12,400 -240 Descending FlightAware
01:41AM 38.5440 -85.1780 218° Southwest 274 315 12,400  Level FlightAware
01:42AM 38.4840 -85.2360 217° Southwest 265 305 12,400 -240 Level FlightAware
01:42AM 38.4550 -85.2640 217° Southwest 234 269 12,100 -900 Descending FlightAware
01:43AM 38.4110 -85.3060 217° Southwest 223 257 11,200 -1,200 Descending FlightAware
01:44AM 38.3840 -85.3320 217° Southwest 221 254 10,500 -1,320 Descending FlightAware
01:44AM 38.3500 -85.3660 218° Southwest 220 253 9,600 -1,260 Descending FlightAware
01:45AM 38.3260 -85.3890 217° Southwest 220 253 9,000 -1,260 Descending FlightAware
01:45AM 38.2990 -85.4150 217° Southwest 215 247 8,300 -1,320 Descending FlightAware
01:46AM 38.2770 -85.4370 218° Southwest 213 245 7,700 -1,440 Descending FlightAware
01:46AM 38.2510 -85.4610 216° Southwest 212 244 6,900 -1,500 Descending FlightAware
01:47AM 38.2350 -85.4770 218° Southwest 212 244 6,400 -600 Descending FlightAware
01:47AM 38.2110 -85.5000 217° Southwest 213 245 6,400  Level FlightAware
01:48AM 38.1880 -85.5230 218° Southwest 212 244 6,400 -360 Level FlightAware
01:48AM 38.1690 -85.5410 217° Southwest 209 241 6,100 -780 Descending FlightAware
01:49AM 38.1440 -85.5650 217° Southwest 196 226 5,700 -900 Descending FlightAware
01:49AM 38.1280 -85.5810 218° Southwest 189 217 5,300 -1,320 Descending FlightAware
01:50AM 38.1030 -85.5990 210° Southwest 202 232 4,500 -1,020 Descending FlightAware
01:50AM 38.0820 -85.6120 206° Southwest 208 239 4,400 -120 Descending FlightAware
01:51AM 38.0540 -85.6290 206° Southwest 203 234 4,400 -120 Level FlightAware
01:51AM 38.0310 -85.6300 182° South 235 270 4,300 -960 Descending FlightAware
01:52AM 37.9980 -85.6310 181° South 194 223 3,500 -1,320 Descending FlightAware
01:52AM 37.9920 -85.6480 246° West 174 200 3,200 -720 Descending FlightAware
01:52AM 38.0000 -85.6780 289° West 169 194 2,900 -300 Descending FlightAware
01:53AM 38.0150 -85.7010 310° West 163 188 2,900  Level FlightAware
01:53AM 38.0260 -85.7140 317° Northwest 153 176 2,900  Level FlightAware
01:54AM 38.0470 -85.7310 327° Northwest 167 192 2,900 -360 Level FlightAware
01:54AM 38.0660 -85.7380 344° North 165 190 2,600 -720 Descending FlightAware
01:55AM 38.0850 -85.7450 344° North 146 168 2,300 -780 Descending FlightAware
01:55AM 38.1070 -85.7530 344° North 141 162 1,800 -840 Descending FlightAware
01:56AM 38.1290 -85.7610 344° North 147 169 1,400 -780 Descending FlightAware
01:56AM 38.1470 -85.7670 345° North 145 167 1,000 -900 Descending FlightAware
01:57AM 38.1610 -85.7720 344° North 125 144 -2,640 Descending FlightAware